createdAt,value
2018-07-19T00:01:13.148Z,8.20
2018-07-19T00:03:41.721Z,8.30
2018-07-19T00:06:10.376Z,8.60
2018-07-19T00:08:39.339Z,9.13
2018-07-19T00:11:07.983Z,9.87
2018-07-19T00:13:37.421Z,9.60
2018-07-19T00:16:06.521Z,10.03
2018-07-19T00:18:35.442Z,10.20
2018-07-19T00:21:04.423Z,9.90
2018-07-19T00:23:35.721Z,10.07
2018-07-19T00:26:04.704Z,10.10
2018-07-19T00:28:34.448Z,10.03
2018-07-19T00:31:03.423Z,9.43
2018-07-19T00:33:32.352Z,9.93
2018-07-19T00:36:01.186Z,9.80
2018-07-19T00:38:30.211Z,9.67
2018-07-19T00:40:59.360Z,11.73
2018-07-19T00:43:28.301Z,10.60
2018-07-19T00:45:57.095Z,10.63
2018-07-19T00:48:26.227Z,10.30
2018-07-19T00:53:29.170Z,10.27
2018-07-19T00:55:58.480Z,11.73
2018-07-19T00:58:27.255Z,10.97
2018-07-19T01:00:55.975Z,12.50
2018-07-19T01:03:25.812Z,12.37
2018-07-19T01:05:54.714Z,12.33
2018-07-19T01:08:25.660Z,13.27
2018-07-19T01:10:54.581Z,12.93
2018-07-19T01:13:23.307Z,13.27
2018-07-19T01:15:51.669Z,13.73
2018-07-19T01:18:20.491Z,14.93
2018-07-19T01:20:52.589Z,13.43
2018-07-19T01:23:21.626Z,14.73
2018-07-19T01:25:50.155Z,15.13
2018-07-19T01:28:18.895Z,14.83
2018-07-19T01:30:47.540Z,17.67
2018-07-19T01:33:16.241Z,19.70
2018-07-19T01:35:44.967Z,18.43
2018-07-19T01:38:14.054Z,18.07
2018-07-19T01:40:42.722Z,17.47
2018-07-19T01:43:11.722Z,18.67
2018-07-19T01:45:41.272Z,18.87
2018-07-19T01:48:10.150Z,18.33
2018-07-19T01:50:38.975Z,20.80
2018-07-19T01:53:07.802Z,20.50
2018-07-19T01:55:36.582Z,20.63
2018-07-19T01:58:05.538Z,20.13
2018-07-19T02:00:34.492Z,19.77
2018-07-19T02:03:03.570Z,20.13
2018-07-19T02:05:32.200Z,19.60
2018-07-19T02:08:01.099Z,22.33
2018-07-19T02:10:30.072Z,22.37
2018-07-19T02:12:59.241Z,25.03
2018-07-19T02:15:27.777Z,26.60
2018-07-19T02:17:56.406Z,27.23
2018-07-19T02:20:25.169Z,26.70
2018-07-19T02:22:55.004Z,28.30
2018-07-19T02:25:23.956Z,25.83
2018-07-19T02:27:53.735Z,27.93
2018-07-19T02:30:22.425Z,29.37
2018-07-19T02:32:51.386Z,27.40
2018-07-19T02:35:20.039Z,27.83
2018-07-19T02:37:48.811Z,28.07
2018-07-19T02:40:17.569Z,29.53
2018-07-19T02:42:46.463Z,29.47
2018-07-19T02:45:15.161Z,28.63
2018-07-19T02:47:44.247Z,29.30
2018-07-19T02:50:13.031Z,29.57
2018-07-19T02:52:41.816Z,29.73
2018-07-19T02:55:10.496Z,31.37
2018-07-19T02:57:39.192Z,30.50
2018-07-19T03:00:08.156Z,31.37
2018-07-19T03:02:37.316Z,31.20
2018-07-19T03:05:06.169Z,30.50
2018-07-19T03:07:34.842Z,33.07
2018-07-19T03:10:04.351Z,33.77
2018-07-19T03:12:33.466Z,32.77
2018-07-19T03:15:02.352Z,31.03
2018-07-19T03:17:31.232Z,28.70
2018-07-19T03:20:00.204Z,32.97
2018-07-19T03:22:28.792Z,30.17
2018-07-19T03:24:57.589Z,33.73
2018-07-19T03:27:26.844Z,29.53
2018-07-19T03:29:55.620Z,34.10
2018-07-19T03:32:24.319Z,34.87
2018-07-19T03:34:53.139Z,31.57
2018-07-19T03:37:21.992Z,31.93
2018-07-19T03:39:50.680Z,32.97
2018-07-19T03:42:19.628Z,32.80
2018-07-19T03:44:48.268Z,34.37
2018-07-19T03:47:17.127Z,36.00
2018-07-19T03:49:45.939Z,35.10
2018-07-19T03:52:15.018Z,34.27
2018-07-19T03:54:44.214Z,35.63
2018-07-19T03:57:13.032Z,33.23
2018-07-19T03:59:42.052Z,35.53
2018-07-19T04:02:11.304Z,37.40
2018-07-19T04:04:40.104Z,35.10
2018-07-19T04:07:08.922Z,34.90
2018-07-19T04:09:37.877Z,32.07
2018-07-19T04:12:06.900Z,34.37
2018-07-19T04:14:35.867Z,35.43
2018-07-19T04:17:05.074Z,32.97
2018-07-19T04:19:33.851Z,33.73
2018-07-19T04:22:02.582Z,32.03
2018-07-19T04:24:30.884Z,32.10
2018-07-19T04:27:00.999Z,31.57
2018-07-19T04:29:29.852Z,30.80
2018-07-19T04:31:59.059Z,30.03
2018-07-19T04:34:27.845Z,30.07
2018-07-19T04:36:56.605Z,29.97
2018-07-19T04:39:25.535Z,30.13
2018-07-19T04:41:54.515Z,30.33
2018-07-19T04:44:23.428Z,30.27
2018-07-19T04:46:58.787Z,29.80
2018-07-19T04:49:30.903Z,31.20
2018-07-19T04:52:00.603Z,29.97
2018-07-19T04:54:29.558Z,28.97
2018-07-19T04:56:59.500Z,27.97
2018-07-19T04:59:28.373Z,27.67
2018-07-19T05:01:57.103Z,28.53
2018-07-19T05:04:25.890Z,28.13
2018-07-19T05:06:54.831Z,27.57
2018-07-19T05:09:23.886Z,27.33
2018-07-19T05:11:53.142Z,26.40
2018-07-19T05:14:22.071Z,26.83
2018-07-19T05:16:50.656Z,25.27
2018-07-19T05:19:19.592Z,24.67
2018-07-19T05:21:49.331Z,25.83
2018-07-19T05:24:18.523Z,24.83
2018-07-19T05:26:47.029Z,22.47
2018-07-19T05:29:15.651Z,21.33
2018-07-19T05:31:44.515Z,21.30
2018-07-19T05:34:13.667Z,21.30
2018-07-19T05:36:42.716Z,20.80
2018-07-19T05:39:13.335Z,20.40
2018-07-19T05:41:42.469Z,20.23
2018-07-19T05:44:12.010Z,19.83
2018-07-19T05:46:41.099Z,19.60
2018-07-19T05:49:10.121Z,18.73
2018-07-19T05:51:38.879Z,18.33
2018-07-19T05:54:10.608Z,18.70
2018-07-19T05:56:39.393Z,16.40
2018-07-19T05:59:08.831Z,15.17
2018-07-19T06:01:37.745Z,13.50
2018-07-19T06:04:06.472Z,12.70
2018-07-19T06:06:35.723Z,11.67
2018-07-19T06:09:06.491Z,11.53
2018-07-19T06:11:35.811Z,10.03
2018-07-19T06:14:05.411Z,10.50
2018-07-19T06:16:34.346Z,9.87
2018-07-19T06:19:03.291Z,9.63
2018-07-19T06:21:32.013Z,8.63
2018-07-19T06:24:01.532Z,9.30
2018-07-19T06:26:30.308Z,8.73
2018-07-19T06:28:59.321Z,8.70
2018-07-19T06:31:28.598Z,8.40
2018-07-19T06:33:57.601Z,7.43
2018-07-19T06:36:26.658Z,7.50
2018-07-19T06:38:57.167Z,6.67
2018-07-19T06:41:26.025Z,5.93
2018-07-19T06:43:54.872Z,5.67
2018-07-19T06:46:23.748Z,5.50
2018-07-19T06:48:53.449Z,4.90
2018-07-19T06:51:22.519Z,5.67
2018-07-19T06:53:51.388Z,5.13
2018-07-19T06:56:20.207Z,4.97
2018-07-19T06:58:49.143Z,4.57
2018-07-19T07:01:18.249Z,5.07
2018-07-19T07:03:47.238Z,4.87
2018-07-19T07:06:16.121Z,5.33
2018-07-19T07:08:44.987Z,4.93
2018-07-19T07:11:13.682Z,5.47
2018-07-19T07:13:42.834Z,5.70
2018-07-19T07:16:12.288Z,6.10
2018-07-19T07:18:41.262Z,5.80
2018-07-19T07:21:11.343Z,6.17
2018-07-19T07:23:40.439Z,5.63
2018-07-19T07:26:09.549Z,4.70
2018-07-19T07:28:42.413Z,5.30
2018-07-19T07:31:12.017Z,4.37
2018-07-19T07:33:40.939Z,4.47
2018-07-19T07:36:10.020Z,5.30
2018-07-19T07:38:39.008Z,5.07
2018-07-19T07:41:07.900Z,5.07
2018-07-19T07:43:37.166Z,5.67
2018-07-19T07:46:05.969Z,3.63
2018-07-19T07:48:34.977Z,3.33
2018-07-19T07:51:03.928Z,4.37
2018-07-19T07:53:32.863Z,4.50
2018-07-19T07:56:02.641Z,4.27
2018-07-19T07:58:31.665Z,4.23
2018-07-19T08:01:00.503Z,3.30
2018-07-19T08:03:30.141Z,2.90
2018-07-19T08:06:01.188Z,2.93
2018-07-19T08:08:30.088Z,2.90
2018-07-19T08:11:00.133Z,3.37
2018-07-19T08:13:33.504Z,2.87
2018-07-19T08:16:07.930Z,2.33
2018-07-19T08:18:37.272Z,2.60
2018-07-19T08:21:06.527Z,2.70
2018-07-19T08:23:35.710Z,2.50
2018-07-19T08:26:04.658Z,2.50
2018-07-19T08:28:33.499Z,2.00
2018-07-19T08:31:02.519Z,2.30
2018-07-19T08:33:31.322Z,2.80
2018-07-19T08:36:00.560Z,2.60
2018-07-19T08:38:29.687Z,2.67
2018-07-19T08:41:01.422Z,2.60
2018-07-19T08:43:31.004Z,2.43
2018-07-19T08:45:59.900Z,2.37
2018-07-19T08:48:28.744Z,3.00
2018-07-19T08:50:57.993Z,2.23
2018-07-19T08:53:26.968Z,2.07
2018-07-19T08:58:27.602Z,2.60
2018-07-19T09:00:57.191Z,2.43
2018-07-19T09:03:26.171Z,2.63
2018-07-19T09:05:54.945Z,2.67
2018-07-19T09:08:27.875Z,2.50
2018-07-19T09:10:56.755Z,2.20
2018-07-19T09:13:27.091Z,2.07
2018-07-19T09:15:56.075Z,1.53
2018-07-19T09:18:25.082Z,1.90
2018-07-19T09:20:54.430Z,2.13
2018-07-19T09:23:23.675Z,2.43
2018-07-19T09:25:52.672Z,1.83
2018-07-19T09:28:22.041Z,1.87
2018-07-19T09:30:51.202Z,2.40
2018-07-19T09:33:20.674Z,1.90
2018-07-19T09:35:49.929Z,1.80
2018-07-19T09:38:18.804Z,2.20
2018-07-19T09:40:47.975Z,2.20
2018-07-19T09:43:17.892Z,1.70
2018-07-19T09:45:46.841Z,1.50
2018-07-19T09:48:15.763Z,2.10
2018-07-19T09:50:44.514Z,1.60
2018-07-19T09:53:16.907Z,1.67
2018-07-19T09:55:45.949Z,2.20
2018-07-19T09:58:14.986Z,1.80
2018-07-19T10:00:51.697Z,1.60
2018-07-19T10:03:21.211Z,1.67
2018-07-19T10:05:53.902Z,2.00
2018-07-19T10:08:31.197Z,1.90
2018-07-19T10:11:00.906Z,1.40
2018-07-19T10:13:31.204Z,1.40
2018-07-19T10:16:00.511Z,1.40
2018-07-19T10:18:29.180Z,1.57
2018-07-19T10:20:58.264Z,1.60
2018-07-19T10:23:27.851Z,1.60
2018-07-19T10:25:56.685Z,1.77
2018-07-19T10:28:31.195Z,1.27
2018-07-19T10:31:00.208Z,1.30
2018-07-19T10:33:34.959Z,1.50
2018-07-19T10:36:11.108Z,1.90
2018-07-19T10:38:43.612Z,1.07
2018-07-19T10:41:12.348Z,1.30
2018-07-19T10:43:43.285Z,1.33
2018-07-19T10:46:14.213Z,1.40
2018-07-19T10:48:43.562Z,1.23
2018-07-19T10:51:12.426Z,1.37
2018-07-19T10:53:52.367Z,1.47
2018-07-19T10:56:22.105Z,1.53
2018-07-19T10:58:51.103Z,1.43
2018-07-19T11:01:20.324Z,1.50
2018-07-19T11:03:53.697Z,1.57
2018-07-19T11:06:23.113Z,1.53
2018-07-19T11:08:52.767Z,1.43
2018-07-19T11:11:22.017Z,1.50
2018-07-19T11:13:51.086Z,1.40
2018-07-19T11:16:20.530Z,1.57
2018-07-19T11:18:49.651Z,1.20
2018-07-19T11:21:19.245Z,1.60
2018-07-19T11:23:52.340Z,1.43
2018-07-19T11:26:21.017Z,1.47
2018-07-19T11:28:50.075Z,1.83
2018-07-19T11:31:22.610Z,1.50
2018-07-19T11:33:58.843Z,1.50
2018-07-19T11:36:32.144Z,1.40
2018-07-19T11:39:01.437Z,1.40
2018-07-19T11:41:30.507Z,1.10
2018-07-19T11:43:59.849Z,1.43
2018-07-19T11:46:32.080Z,1.40
2018-07-19T11:49:01.210Z,1.30
2018-07-19T11:51:35.915Z,1.33
2018-07-19T11:54:05.020Z,1.10
2018-07-19T11:56:40.733Z,1.37
2018-07-19T11:59:13.186Z,1.10
2018-07-19T12:01:45.933Z,1.00
2018-07-19T12:04:15.881Z,1.17
2018-07-19T12:06:44.767Z,0.70
2018-07-19T12:09:13.588Z,0.80
2018-07-19T12:11:42.411Z,0.90
2018-07-19T12:14:11.072Z,0.60
2018-07-19T12:16:40.297Z,0.80
2018-07-19T12:19:09.298Z,0.70
2018-07-19T12:21:39.302Z,0.60
2018-07-19T12:24:08.081Z,0.90
2018-07-19T12:26:37.457Z,0.67
2018-07-19T12:29:06.572Z,0.50
2018-07-19T12:31:42.306Z,0.60
2018-07-19T12:34:11.193Z,0.73
2018-07-19T12:36:40.158Z,0.60
2018-07-19T12:39:11.096Z,0.90
2018-07-19T12:41:41.905Z,0.70
2018-07-19T12:44:10.981Z,0.70
2018-07-19T12:46:40.058Z,0.50
2018-07-19T12:49:09.206Z,0.40
2018-07-19T12:51:38.688Z,0.50
2018-07-19T12:54:08.100Z,0.80
2018-07-19T12:58:52.201Z,0.87
2018-07-19T13:01:21.280Z,0.70
2018-07-19T13:03:50.206Z,0.53
2018-07-19T13:06:23.206Z,0.50
